Time;durP1;ratioP1;P1;durP2;ratioP2;P2;SDS_P1;SDS_P2;PMS_P1;PMS_P2;Temp;Humidity;BMP_temperature;BMP_pressure;BME280_temperature;BME280_humidity;BME280_pressure;Samples;Min_cycle;Max_cycle;Signal;HPM_P1;HPM_P2
2021/09/15 00:00:07;;;;;;;19.25;15.32;;;;;;;16.31;90.08;100297.92;2834022;84;21050;-64
2021/09/15 00:04:16;;;;;;;20.23;14.53;;;;;;;16.37;89.91;100291.89;2844483;82;21010;-64
2021/09/15 00:08:18;;;;;;;14.85;12.53;;;;;;;16.36;89.37;100288.38;2885287;82;21010;-65
2021/09/15 00:12:20;;;;;;;20.57;15.72;;;;;;;16.15;89.61;100289.33;2885157;82;20978;-64
2021/09/15 00:16:22;;;;;;;21.23;15.88;;;;;;;15.84;90.71;100278.09;2883326;82;20986;-64
2021/09/15 00:20:24;;;;;;;18.75;14.10;;;;;;;15.63;91.99;100283.88;2882547;82;21026;-64
2021/09/15 00:24:26;;;;;;;20.95;17.00;;;;;;;15.50;92.74;100280.25;2882840;82;21029;-64
2021/09/15 00:28:28;;;;;;;19.37;14.20;;;;;;;15.39;93.15;100281.88;2885417;82;20966;-64
2021/09/15 00:32:35;;;;;;;20.12;15.45;;;;;;;15.43;93.77;100281.89;2884537;82;20985;-64
2021/09/15 00:36:37;;;;;;;18.62;15.98;;;;;;;15.43;93.41;100279.21;2884282;82;20974;-64
2021/09/15 00:40:38;;;;;;;21.85;16.42;;;;;;;15.39;93.65;100280.02;2834635;84;21015;-64
2021/09/15 00:44:40;;;;;;;24.92;17.12;;;;;;;15.34;93.99;100276.16;2885867;82;21022;-64
2021/09/15 00:48:52;;;;;;;22.27;16.00;;;;;;;15.42;94.40;100277.53;2852461;82;21009;-64
2021/09/15 00:52:54;;;;;;;20.12;16.32;;;;;;;15.50;93.73;100277.57;2787565;85;21011;-64
2021/09/15 00:56:55;;;;;;;17.85;14.28;;;;;;;15.45;92.56;100277.73;2836019;84;21002;-64
2021/09/15 01:00:58;;;;;;;20.37;16.20;;;;;;;15.32;92.80;100290.19;2885323;82;20953;-63
2021/09/15 01:05:00;;;;;;;20.88;16.23;;;;;;;15.16;93.73;100286.89;2885330;81;20997;-64
2021/09/15 01:09:05;;;;;;;19.17;16.32;;;;;;;15.12;93.87;100293.05;2890707;82;21037;-63
2021/09/15 01:13:13;;;;;;;25.92;17.10;;;;;;;15.17;93.33;100285.41;2886022;82;20960;-64
2021/09/15 01:17:14;;;;;;;17.12;14.40;;;;;;;15.16;94.49;100289.09;2885937;82;20960;-63
2021/09/15 01:21:16;;;;;;;21.12;18.02;;;;;;;15.13;93.88;100286.70;2866696;82;20990;-64
2021/09/15 01:25:41;;;;;;;23.35;18.87;;;;;;;15.05;94.52;100289.33;2784650;85;21506;-64
2021/09/15 01:29:44;;;;;;;29.80;19.85;;;;;;;15.01;95.30;100291.97;2835951;82;21044;-64
2021/09/15 01:34:06;;;;;;;25.50;18.62;;;;;;;15.13;96.09;100282.19;2869512;82;21005;-63
2021/09/15 01:38:08;;;;;;;23.52;18.37;;;;;;;15.14;94.98;100283.88;2771410;84;20986;-64
2021/09/15 01:42:10;;;;;;;20.40;16.48;;;;;;;15.06;94.83;100285.64;2885601;82;20996;-64
2021/09/15 01:46:17;;;;;;;22.87;18.87;;;;;;;15.07;94.91;100284.65;2885413;82;20973;-64
2021/09/15 01:50:19;;;;;;;23.18;18.17;;;;;;;15.09;94.46;100288.01;2885212;82;20993;-63
2021/09/15 01:54:35;;;;;;;26.95;20.02;;;;;;;15.22;94.16;100292.48;2882964;81;21045;-65
2021/09/15 01:58:37;;;;;;;24.95;16.80;;;;;;;15.28;92.92;100291.02;2885542;82;20921;-64
2021/09/15 02:02:39;;;;;;;19.45;16.20;;;;;;;15.31;91.84;100294.72;2881219;82;21008;-63
2021/09/15 02:06:41;;;;;;;20.05;15.53;;;;;;;15.36;90.90;100292.91;2873279;83;20953;-63
2021/09/15 02:10:44;;;;;;;23.12;20.62;;;;;;;15.39;90.70;100291.25;2888390;81;21370;-63
2021/09/15 02:14:45;;;;;;;29.95;21.57;;;;;;;15.48;90.70;100282.77;2844037;82;20970;-64
2021/09/15 02:18:50;;;;;;;30.35;20.48;;;;;;;15.50;91.05;100276.75;2820863;82;21044;-63
2021/09/15 02:22:52;;;;;;;25.70;20.00;;;;;;;15.41;90.60;100282.55;2815872;82;20989;-64
2021/09/15 02:26:54;;;;;;;19.50;16.00;;;;;;;15.17;91.29;100268.00;2833081;84;20991;-64
2021/09/15 02:31:14;;;;;;;16.77;15.05;;;;;;;15.03;92.20;100257.84;2882792;82;20965;-64
2021/09/15 02:35:16;;;;;;;19.10;16.23;;;;;;;14.87;92.49;100257.22;2787496;85;20936;-63
2021/09/15 02:39:36;;;;;;;20.68;17.25;;;;;;;14.84;93.81;100257.02;2872024;82;20953;-64
2021/09/15 02:43:37;;;;;;;21.37;16.90;;;;;;;14.93;93.12;100255.25;2858664;82;20958;-63
2021/09/15 02:47:39;;;;;;;30.12;18.62;;;;;;;14.76;92.23;100258.30;2836577;84;21029;-64
2021/09/15 02:51:50;;;;;;;19.50;15.08;;;;;;;14.67;92.66;100262.19;2836310;84;21024;-64
2021/09/15 02:55:52;;;;;;;20.68;18.50;;;;;;;14.69;92.09;100250.83;2836428;84;20951;-63
2021/09/15 02:59:54;;;;;;;27.77;20.23;;;;;;;14.65;92.74;100242.77;2836559;84;20951;-64
2021/09/15 03:03:55;;;;;;;28.30;20.62;;;;;;;14.55;93.80;100248.20;2836190;84;20955;-63
2021/09/15 03:08:07;;;;;;;29.02;20.70;;;;;;;14.43;93.91;100255.61;2836558;84;20963;-63
2021/09/15 03:12:09;;;;;;;29.52;21.93;;;;;;;14.30;94.86;100262.33;2861495;82;21002;-63
2021/09/15 03:16:10;;;;;;;22.20;19.00;;;;;;;14.22;96.31;100256.39;2833643;84;20995;-63
2021/09/15 03:20:13;;;;;;;24.85;18.87;;;;;;;14.22;96.21;100258.56;2832076;84;21011;-64
2021/09/15 03:24:15;;;;;;;28.52;21.12;;;;;;;14.21;96.19;100257.39;2831533;84;21014;-64
2021/09/15 03:28:17;;;;;;;22.77;18.87;;;;;;;14.31;96.92;100254.14;2880260;82;21042;-64
2021/09/15 03:32:19;;;;;;;26.52;19.95;;;;;;;14.40;95.31;100253.73;2834390;84;20985;-63
2021/09/15 03:36:21;;;;;;;30.37;19.42;;;;;;;14.40;95.25;100259.08;2885406;82;21012;-64
2021/09/15 03:40:29;;;;;;;26.80;22.10;;;;;;;14.35;94.92;100260.89;2890481;82;20923;-64
2021/09/15 03:44:30;;;;;;;24.43;19.62;;;;;;;14.42;94.93;100251.73;2885736;82;20960;-63
2021/09/15 03:48:32;;;;;;;26.90;22.35;;;;;;;14.43;93.73;100252.08;2884630;82;20980;-64
2021/09/15 03:52:42;;;;;;;27.48;21.27;;;;;;;14.45;94.53;100246.11;2885083;82;20957;-63
2021/09/15 03:56:44;;;;;;;36.10;20.52;;;;;;;14.46;94.04;100242.44;2885454;82;21024;-65
2021/09/15 04:00:46;;;;;;;21.93;17.70;;;;;;;14.31;93.94;100241.27;2890620;82;20946;-64
2021/09/15 04:04:47;;;;;;;26.50;20.60;;;;;;;14.17;94.56;100238.62;2889247;82;21020;-64
2021/09/15 04:08:49;;;;;;;32.70;22.25;;;;;;;14.25;95.99;100228.00;2815132;84;21064;-63
2021/09/15 04:12:51;;;;;;;23.32;17.77;;;;;;;14.35;95.80;100230.13;2869660;83;20969;-64
2021/09/15 04:16:59;;;;;;;28.65;21.62;;;;;;;14.31;94.23;100234.07;2870515;83;21005;-63
2021/09/15 04:21:00;;;;;;;24.12;17.77;;;;;;;14.10;94.39;100237.86;2870374;83;20952;-63
2021/09/15 04:33:43;;;;;;;29.40;21.27;;;;;;;14.02;94.97;100228.42;2870627;83;20985;-63
2021/09/15 04:37:44;;;;;;;23.90;21.07;;;;;;;14.00;96.09;100225.06;2870631;83;20981;-63
2021/09/15 04:41:53;;;;;;;24.63;18.52;;;;;;;14.14;96.37;100212.49;2870825;83;21015;-63
2021/09/15 04:45:55;;;;;;;33.08;20.97;;;;;;;14.22;95.33;100217.60;2870389;83;20973;-64
2021/09/15 04:50:21;;;;;;;30.35;20.55;;;;;;;14.12;94.51;100219.83;2870380;83;20977;-63
2021/09/15 04:54:23;;;;;;;26.55;19.80;;;;;;;13.98;95.75;100217.69;2870593;83;21024;-63
2021/09/15 04:58:26;;;;;;;29.98;23.20;;;;;;;14.04;97.28;100221.09;2877453;82;20967;-63
2021/09/15 05:02:27;;;;;;;28.42;21.60;;;;;;;14.34;97.84;100225.73;2885238;82;20950;-63
2021/09/15 05:06:29;;;;;;;26.00;21.35;;;;;;;14.63;97.31;100209.10;2885230;82;20992;-64
2021/09/15 05:10:39;;;;;;;28.38;23.20;;;;;;;15.06;98.38;100205.28;2885631;82;20976;-63
2021/09/15 05:14:41;;;;;;;32.95;24.90;;;;;;;15.69;96.63;100201.44;2890260;82;21029;-63
2021/09/15 05:18:43;;;;;;;29.42;23.15;;;;;;;16.35;93.63;100199.95;2885416;82;20972;-63
2021/09/15 05:22:51;;;;;;;27.13;21.73;;;;;;;16.79;90.45;100198.28;2880978;82;21016;-64
2021/09/15 05:26:53;;;;;;;42.45;33.25;;;;;;;17.24;88.87;100198.76;2839078;84;20923;-64
2021/09/15 05:30:55;;;;;;;30.15;24.07;;;;;;;17.77;87.44;100187.98;2784908;85;20975;-64
2021/09/15 05:34:59;;;;;;;81.12;69.17;;;;;;;18.18;84.62;100178.38;2875309;82;20941;-64
2021/09/15 05:39:00;;;;;;;177.25;127.75;;;;;;;18.45;83.89;100188.77;2885411;82;21004;-63
2021/09/15 05:43:06;;;;;;;57.95;47.70;;;;;;;18.70;82.43;100179.98;2885367;82;20986;-64
2021/09/15 05:47:08;;;;;;;46.23;40.85;;;;;;;19.00;81.10;100172.50;2870286;82;20996;-64
2021/09/15 05:51:10;;;;;;;35.00;29.55;;;;;;;19.29;80.06;100177.60;2881073;82;20953;-64
2021/09/15 05:55:38;;;;;;;27.45;21.23;;;;;;;19.41;78.99;100186.38;2838960;84;21047;-64
2021/09/15 05:59:39;;;;;;;24.05;20.02;;;;;;;19.73;79.08;100186.16;2839101;84;21040;-64
2021/09/15 06:03:41;;;;;;;23.35;17.02;;;;;;;20.15;77.92;100192.38;2915624;81;21014;-64
2021/09/15 06:07:43;;;;;;;27.60;17.07;;;;;;;20.33;76.61;100194.13;2890308;82;20981;-64
2021/09/15 06:11:45;;;;;;;22.02;17.12;;;;;;;20.30;77.37;100191.81;2891380;82;21020;-64
2021/09/15 06:15:46;;;;;;;19.82;17.10;;;;;;;20.59;76.45;100193.22;2911919;81;21036;-66
2021/09/15 06:19:48;;;;;;;70.45;50.10;;;;;;;20.73;75.46;100194.17;2856329;81;21030;-64
2021/09/15 06:23:52;;;;;;;72.50;46.58;;;;;;;20.96;75.08;100192.63;2867575;81;20980;-64
2021/09/15 06:27:55;;;;;;;32.80;29.67;;;;;;;21.13;74.81;100194.50;2926325;81;20979;-64
2021/09/15 06:31:57;;;;;;;63.05;57.23;;;;;;;21.03;73.99;100193.99;2890216;81;20992;-63
2021/09/15 06:36:00;;;;;;;23.27;20.70;;;;;;;20.77;75.53;100188.19;2890563;82;20997;-64
2021/09/15 06:40:01;;;;;;;27.98;23.25;;;;;;;20.91;75.70;100189.15;2834230;84;20947;-64
2021/09/15 06:44:03;;;;;;;20.37;17.77;;;;;;;20.90;76.83;100180.72;2885401;82;21020;-64
2021/09/15 06:48:05;;;;;;;18.27;15.38;;;;;;;20.92;76.63;100175.09;2890108;82;20982;-65
2021/09/15 06:52:07;;;;;;;21.50;17.57;;;;;;;21.15;77.39;100171.33;2834135;84;20975;-65
2021/09/15 06:56:10;;;;;;;16.05;14.45;;;;;;;21.47;76.30;100172.54;2885380;82;21052;-65
2021/09/15 07:00:19;;;;;;;19.70;15.80;;;;;;;21.83;74.83;100174.18;2890397;82;20966;-64
2021/09/15 07:04:20;;;;;;;20.20;15.50;;;;;;;22.08;74.11;100168.20;2834253;84;21002;-65
2021/09/15 07:08:41;;;;;;;19.35;15.63;;;;;;;22.23;74.03;100176.14;2885266;82;21027;-65
2021/09/15 07:12:44;;;;;;;15.72;12.65;;;;;;;22.55;73.93;100178.28;2890294;82;20934;-64
2021/09/15 07:16:46;;;;;;;26.52;21.52;;;;;;;22.86;72.82;100174.62;2833008;84;20994;-64
2021/09/15 07:20:48;;;;;;;22.62;16.23;;;;;;;22.98;72.00;100179.73;2833861;84;21016;-64
2021/09/15 07:24:55;;;;;;;19.57;15.48;;;;;;;23.02;72.08;100170.13;2885367;82;21056;-64
2021/09/15 07:28:57;;;;;;;19.50;16.75;;;;;;;22.99;72.52;100169.70;2890187;82;21005;-64
2021/09/15 07:32:59;;;;;;;19.95;16.00;;;;;;;23.06;72.32;100167.30;2834148;84;20960;-64
2021/09/15 07:37:03;;;;;;;21.35;12.65;;;;;;;23.13;72.26;100161.05;2885388;82;20978;-65
2021/09/15 07:41:05;;;;;;;15.48;13.90;;;;;;;23.24;72.35;100165.30;2834236;84;21058;-64
2021/09/15 07:45:10;;;;;;;17.90;11.48;;;;;;;23.24;72.62;100162.58;2834013;84;21039;-65
2021/09/15 07:49:12;;;;;;;18.17;12.95;;;;;;;23.34;72.69;100169.46;2848822;82;21058;-64
2021/09/15 07:53:16;;;;;;;16.65;14.78;;;;;;;23.43;72.02;100165.48;2885258;82;20967;-63
2021/09/15 07:57:17;;;;;;;23.70;15.30;;;;;;;23.45;72.01;100169.32;2872245;82;21126;-63
2021/09/15 08:01:22;;;;;;;19.70;13.68;;;;;;;23.44;72.15;100171.22;2786447;85;21096;-64
2021/09/15 08:05:23;;;;;;;17.70;15.08;;;;;;;23.52;72.78;100166.89;2835656;84;20947;-64
2021/09/15 08:09:25;;;;;;;18.82;14.65;;;;;;;23.62;72.19;100165.08;2910181;82;21027;-63
2021/09/15 08:13:27;;;;;;;16.55;13.50;;;;;;;23.70;71.77;100172.15;2885159;82;20996;-63
2021/09/15 08:17:28;;;;;;;17.23;13.58;;;;;;;23.90;72.42;100176.66;2889506;82;20977;-64
2021/09/15 08:21:30;;;;;;;16.52;13.22;;;;;;;24.12;71.60;100176.35;2879445;82;21048;-64
2021/09/15 08:25:34;;;;;;;15.50;12.65;;;;;;;24.33;71.27;100167.03;2879649;82;20961;-64
2021/09/15 08:29:36;;;;;;;20.62;13.90;;;;;;;24.47;70.76;100167.23;2879324;82;20993;-64
2021/09/15 08:33:39;;;;;;;12.47;11.10;;;;;;;24.64;70.39;100174.31;2879671;82;21034;-64
2021/09/15 08:37:41;;;;;;;14.35;11.93;;;;;;;24.82;69.84;100165.92;2871571;82;21032;-64
2021/09/15 08:58:09;;;;;;;13.98;9.80;;;;;;;25.73;67.82;100149.55;2835255;83;21028;-64
2021/09/15 09:02:12;;;;;;;13.70;9.33;;;;;;;25.91;67.86;100140.50;2819664;80;21556;-65
2021/09/15 09:06:22;;;;;;;11.22;7.90;;;;;;;26.02;66.09;100133.42;2856194;82;20963;-64
2021/09/15 09:10:20;;;;;;;14.53;7.92;;;;;;;26.22;65.74;100126.34;2860182;83;20982;-64
2021/09/15 09:14:27;;;;;;;13.32;8.60;;;;;;;26.33;64.21;100126.07;2885785;82;20988;-65
2021/09/15 09:18:28;;;;;;;10.98;7.75;;;;;;;26.50;63.92;100129.77;2885911;82;20917;-64
2021/09/15 09:22:30;;;;;;;11.57;9.18;;;;;;;26.62;64.48;100135.23;2885830;82;20921;-64
2021/09/15 09:26:55;;;;;;;18.92;9.65;;;;;;;26.73;63.97;100134.12;2885793;82;20966;-64
2021/09/15 09:31:03;;;;;;;8.55;6.42;;;;;;;26.89;64.41;100127.95;2885786;82;20953;-63
2021/09/15 09:35:06;;;;;;;15.23;6.92;;;;;;;27.05;62.76;100123.69;2885790;82;20988;-64
2021/09/15 09:39:11;;;;;;;11.57;6.97;;;;;;;27.11;62.50;100119.14;2885593;82;21043;-64
2021/09/15 09:43:14;;;;;;;;;;;;;;;27.21;62.28;100115.27;2887906;82;20961;-64
2021/09/15 09:47:19;;;;;;;8.80;6.28;;;;;;;27.30;61.42;100113.52;2834508;84;20078;-64
2021/09/15 09:51:41;;;;;;;14.83;6.03;;;;;;;27.32;61.39;100103.22;2885596;82;20979;-65
2021/09/15 09:55:43;;;;;;;10.45;5.75;;;;;;;27.29;61.79;100105.04;2834362;84;21042;-63
2021/09/15 09:59:45;;;;;;;9.25;6.72;;;;;;;27.40;60.88;100100.09;2883838;82;20989;-64
2021/09/15 10:03:47;;;;;;;7.03;6.28;;;;;;;27.56;61.64;100097.14;2834207;84;20996;-64
2021/09/15 10:07:50;;;;;;;6.97;6.28;;;;;;;27.70;61.30;100089.47;2878186;82;21000;-64
2021/09/15 10:11:52;;;;;;;7.05;5.97;;;;;;;27.70;60.48;100079.09;2872891;82;20994;-64
2021/09/15 10:15:59;;;;;;;7.90;6.05;;;;;;;27.65;59.93;100081.19;2834349;84;20989;-64
2021/09/15 10:20:01;;;;;;;6.40;5.65;;;;;;;27.66;61.02;100084.21;2834290;84;21021;-64
2021/09/15 10:24:04;;;;;;;7.22;6.62;;;;;;;27.88;60.70;100078.04;2834367;84;20989;-64
2021/09/15 10:28:09;;;;;;;17.90;6.60;;;;;;;28.05;59.54;100073.42;2864244;82;20992;-64
2021/09/15 10:32:13;;;;;;;8.15;6.10;;;;;;;28.21;58.91;100066.88;2911021;82;20995;-64
2021/09/15 10:36:23;;;;;;;7.10;5.40;;;;;;;28.30;58.46;100068.66;2910891;82;20971;-64
2021/09/15 10:40:30;;;;;;;8.35;6.45;;;;;;;28.43;59.39;100059.27;2908962;82;21003;-64
2021/09/15 10:44:31;;;;;;;8.53;6.00;;;;;;;28.51;59.78;100054.20;2911047;82;20964;-64
2021/09/15 10:48:33;;;;;;;7.35;6.53;;;;;;;28.58;59.46;100054.03;2878462;81;21033;-64
2021/09/15 10:52:43;;;;;;;7.03;6.20;;;;;;;28.57;58.68;100052.38;2873022;83;20953;-64
2021/09/15 10:56:45;;;;;;;11.18;6.72;;;;;;;28.57;58.12;100041.44;2873183;83;21012;-64
2021/09/15 11:00:57;;;;;;;7.62;6.83;;;;;;;28.64;59.40;100037.16;2873053;83;21002;-64
2021/09/15 11:05:21;;;;;;;6.45;5.80;;;;;;;28.69;58.40;100028.16;2904541;81;20951;-64
2021/09/15 11:09:28;;;;;;;6.62;5.97;;;;;;;28.61;58.27;100036.30;2933819;81;21007;-64
2021/09/15 11:13:40;;;;;;;13.55;6.08;;;;;;;28.50;59.02;100027.13;2895557;81;21081;-63
2021/09/15 11:17:45;;;;;;;6.95;6.15;;;;;;;28.65;57.44;100021.84;2888787;82;20966;-63
2021/09/15 11:21:55;;;;;;;8.73;5.87;;;;;;;28.53;57.32;100029.34;2861370;83;20998;-64
2021/09/15 11:25:58;;;;;;;9.03;5.87;;;;;;;28.45;57.89;100028.39;2858958;82;20965;-64
2021/09/15 11:30:00;;;;;;;7.85;6.30;;;;;;;28.20;58.58;99997.70;2861436;83;20963;-63
2021/09/15 11:34:10;;;;;;;6.05;5.15;;;;;;;28.41;57.89;100019.04;2890028;82;21007;-63
2021/09/15 11:38:12;;;;;;;5.83;5.15;;;;;;;28.42;58.00;100020.17;2833777;84;21014;-64
2021/09/15 11:42:13;;;;;;;26.97;9.05;;;;;;;28.42;54.95;99990.61;2880128;82;20970;-64
2021/09/15 11:46:17;;;;;;;7.40;4.90;;;;;;;28.42;54.95;99990.61;2760502;85;21033;-64
2021/09/15 11:50:27;;;;;;;3.95;3.65;;;;;;;28.75;56.23;99990.23;2787952;85;20998;-64
2021/09/15 11:54:30;;;;;;;3.90;3.60;;;;;;;28.98;54.49;99997.36;2837376;83;20984;-64
2021/09/15 11:58:32;;;;;;;7.08;5.58;;;;;;;29.10;53.50;99984.08;2841383;82;20970;-65
2021/09/15 12:02:36;;;;;;;5.85;5.22;;;;;;;29.10;53.50;99984.08;2839830;82;20992;-63
2021/09/15 12:06:38;;;;;;;5.25;4.80;;;;;;;29.10;55.81;99980.81;2890652;82;20984;-63
2021/09/15 12:10:40;;;;;;;6.00;5.10;;;;;;;29.20;55.10;99980.09;2890149;82;21003;-64
2021/09/15 12:14:58;;;;;;;6.78;5.55;;;;;;;29.36;55.08;99972.86;2885344;82;20988;-65
2021/09/15 12:19:01;;;;;;;4.00;3.47;;;;;;;29.46;53.17;99959.27;2885418;82;20984;-64
2021/09/15 12:23:03;;;;;;;4.95;4.40;;;;;;;29.59;52.89;99954.45;2885217;82;21004;-64
2021/09/15 12:27:17;;;;;;;5.20;4.70;;;;;;;29.54;54.00;99946.20;2885216;82;20980;-64
2021/09/15 12:31:19;;;;;;;8.03;5.33;;;;;;;29.28;53.57;99953.61;2885193;82;21052;-64
2021/09/15 12:35:26;;;;;;;6.35;5.15;;;;;;;29.24;54.38;99943.42;2885017;82;20984;-64
2021/09/15 12:39:28;;;;;;;9.15;5.20;;;;;;;29.33;54.49;99940.52;2885599;82;21023;-64
2021/09/15 12:43:31;;;;;;;9.60;4.80;;;;;;;29.33;54.49;99940.52;2885525;82;20968;-64
2021/09/15 12:47:38;;;;;;;5.08;3.98;;;;;;;29.53;52.39;99929.48;2885547;82;21008;-63
2021/09/15 12:51:39;;;;;;;8.13;4.70;;;;;;;29.69;53.49;99923.57;2877632;82;21015;-64
2021/09/15 12:55:47;;;;;;;7.80;4.92;;;;;;;29.77;53.20;99914.84;2884971;82;21071;-65
2021/09/15 12:59:51;;;;;;;6.42;4.22;;;;;;;29.79;52.25;99912.14;2867950;82;21007;-64
2021/09/15 13:04:09;;;;;;;8.18;4.22;;;;;;;29.82;52.25;99914.06;2881169;82;20984;-64
2021/09/15 13:08:22;;;;;;;13.50;6.03;;;;;;;29.62;52.87;99914.20;2882258;82;21028;-64
2021/09/15 13:12:24;;;;;;;7.50;5.10;;;;;;;29.44;52.88;99909.95;2882634;82;20973;-64
2021/09/15 13:16:26;;;;;;;4.30;3.90;;;;;;;29.37;53.54;99903.29;2882008;82;20941;-64
2021/09/15 13:20:29;;;;;;;38.23;10.03;;;;;;;29.45;52.34;99906.12;2882389;82;21040;-64
2021/09/15 13:24:30;;;;;;;4.10;3.70;;;;;;;29.50;53.32;99908.91;2882389;81;20990;-64
2021/09/15 13:28:33;;;;;;;8.63;5.33;;;;;;;29.38;52.83;99904.94;2882625;82;21032;-64
2021/09/15 13:32:40;;;;;;;56.73;12.63;;;;;;;29.31;52.26;99908.45;2882724;82;21000;-64
2021/09/15 13:36:44;;;;;;;5.20;4.30;;;;;;;29.12;51.91;99906.62;2888529;81;20981;-64
2021/09/15 13:40:46;;;;;;;3.58;3.27;;;;;;;28.99;53.25;99900.49;2882599;81;20928;-64
2021/09/15 13:44:48;;;;;;;7.62;4.97;;;;;;;28.88;53.03;99906.38;2933769;81;20963;-64
2021/09/15 13:48:49;;;;;;;30.82;9.60;;;;;;;28.76;54.23;99894.73;2933849;81;20963;-64
2021/09/15 13:52:51;;;;;;;5.40;4.70;;;;;;;28.75;53.94;99891.72;2933917;81;20971;-64
2021/09/15 13:57:10;;;;;;;5.53;4.33;;;;;;;28.73;54.35;99889.78;2933849;81;20960;-65
2021/09/15 14:01:12;;;;;;;5.33;3.75;;;;;;;28.71;53.98;99888.66;2934127;81;21481;-64
2021/09/15 14:05:24;;;;;;;8.60;4.90;;;;;;;28.61;54.67;99885.82;2933920;81;21495;-64
2021/09/15 14:09:27;;;;;;;8.08;4.50;;;;;;;28.61;54.67;99885.82;2934038;81;20912;-64
2021/09/15 14:13:28;;;;;;;6.37;4.58;;;;;;;28.54;54.43;99887.38;2934043;81;20975;-64
2021/09/15 14:17:31;;;;;;;10.50;5.50;;;;;;;28.42;55.49;99898.98;2933896;81;20995;-64
2021/09/15 14:21:34;;;;;;;16.70;6.22;;;;;;;28.29;55.15;99887.33;2933807;81;20959;-64
2021/09/15 14:25:37;;;;;;;4.60;3.72;;;;;;;28.17;55.10;99880.63;2933790;81;20955;-64
2021/09/15 14:29:45;;;;;;;5.95;4.87;;;;;;;28.09;55.53;99883.22;2933633;80;20995;-64
2021/09/15 14:33:47;;;;;;;6.62;5.58;;;;;;;28.13;56.11;99880.00;2933792;81;21552;-64
2021/09/15 14:37:50;;;;;;;6.78;5.00;;;;;;;28.22;55.88;99875.24;2933855;81;21007;-64
2021/09/15 14:41:51;;;;;;;9.13;5.65;;;;;;;28.30;56.59;99877.23;2933908;81;21004;-64
2021/09/15 14:45:53;;;;;;;6.33;4.87;;;;;;;28.31;56.29;99866.05;2933696;81;20963;-64
2021/09/15 14:49:56;;;;;;;8.98;4.35;;;;;;;28.29;55.82;99872.84;2933710;81;20959;-64
2021/09/15 14:53:57;;;;;;;5.15;4.67;;;;;;;28.29;56.87;99864.09;2933884;81;20983;-64
2021/09/15 14:57:59;;;;;;;6.95;4.62;;;;;;;28.34;56.75;99864.17;2933714;81;20987;-64
2021/09/15 15:02:03;;;;;;;6.30;4.85;;;;;;;28.42;54.85;99853.86;2933777;81;20979;-65
2021/09/15 15:06:06;;;;;;;17.20;8.13;;;;;;;28.31;55.49;99852.38;2933793;81;20975;-63
2021/09/15 15:10:10;;;;;;;10.68;5.03;;;;;;;28.24;54.83;99846.81;2933317;81;23931;-63
2021/09/15 15:14:12;;;;;;;5.30;4.65;;;;;;;28.10;55.32;99847.16;2933761;81;20936;-63
2021/09/15 15:18:16;;;;;;;24.67;7.20;;;;;;;28.00;55.59;99853.31;2933740;81;20979;-63
2021/09/15 15:22:18;;;;;;;5.67;4.42;;;;;;;27.93;56.16;99851.31;2933687;81;21007;-63
2021/09/15 15:26:20;;;;;;;7.20;5.12;;;;;;;27.88;56.48;99843.02;2933576;81;20967;-63
2021/09/15 15:30:22;;;;;;;5.70;4.65;;;;;;;27.82;56.21;99847.61;2933584;81;21002;-63
2021/09/15 15:34:26;;;;;;;5.12;4.50;;;;;;;27.72;56.57;99853.76;2933664;81;21028;-63
2021/09/15 15:38:28;;;;;;;16.85;6.58;;;;;;;27.38;56.75;99842.82;2933589;81;20912;-63
2021/09/15 15:42:29;;;;;;;8.05;5.37;;;;;;;27.38;56.75;99842.82;2933684;81;20982;-63
2021/09/15 15:46:31;;;;;;;9.28;5.83;;;;;;;27.28;57.05;99838.02;2879351;81;21031;-63
2021/09/15 15:50:34;;;;;;;8.65;5.10;;;;;;;27.16;57.36;99832.65;2872477;83;20955;-63
2021/09/15 15:54:38;;;;;;;49.58;12.55;;;;;;;27.06;57.81;99829.73;2872726;83;21031;-63
2021/09/15 15:58:40;;;;;;;7.60;6.12;;;;;;;26.90;58.11;99834.11;2872630;83;20975;-62
2021/09/15 16:02:57;;;;;;;12.05;6.05;;;;;;;26.78;58.81;99838.23;2872781;83;20968;-63
2021/09/15 16:06:58;;;;;;;8.85;6.00;;;;;;;26.68;59.57;99829.84;2872652;83;20996;-63
2021/09/15 16:11:00;;;;;;;9.58;5.42;;;;;;;26.61;59.64;99832.19;2872877;83;21015;-62
2021/09/15 16:15:04;;;;;;;12.60;8.48;;;;;;;26.58;59.59;99838.14;2872673;83;20995;-64
2021/09/15 16:19:16;;;;;;;10.95;8.58;;;;;;;26.58;60.09;99834.05;2872781;83;21028;-63
2021/09/15 16:23:18;;;;;;;11.53;7.22;;;;;;;26.50;60.47;99838.51;2872749;83;21023;-63
2021/09/15 16:27:20;;;;;;;9.85;7.20;;;;;;;26.36;60.81;99841.53;2872743;83;21027;-63
2021/09/15 16:31:27;;;;;;;30.40;11.08;;;;;;;26.27;61.32;99833.98;2872897;83;20987;-63
2021/09/15 16:35:29;;;;;;;55.98;21.95;;;;;;;26.19;61.88;99835.18;2872700;83;20959;-63
2021/09/15 16:39:31;;;;;;;18.57;12.45;;;;;;;26.12;62.09;99834.44;2872644;83;20964;-63
2021/09/15 16:43:33;;;;;;;18.85;10.90;;;;;;;26.05;62.05;99834.04;2872578;83;20960;-65
2021/09/15 16:47:36;;;;;;;27.55;12.82;;;;;;;25.97;62.28;99830.34;2872829;83;20936;-65
2021/09/15 16:51:40;;;;;;;28.85;13.20;;;;;;;25.88;62.35;99826.30;2872705;83;20948;-64
2021/09/15 16:55:42;;;;;;;25.32;11.88;;;;;;;25.78;62.73;99828.27;2872160;83;21003;-65
2021/09/15 17:00:16;;;;;;;26.00;10.43;;;;;;;25.68;62.92;99832.14;2872899;83;20996;-65
2021/09/15 17:04:18;;;;;;;9.18;8.35;;;;;;;25.58;63.33;99827.29;2873010;83;21043;-65
2021/09/15 17:08:20;;;;;;;17.73;10.60;;;;;;;25.42;63.71;99825.53;2872855;83;21022;-65
2021/09/15 17:12:23;;;;;;;11.53;8.03;;;;;;;25.33;63.88;99821.48;2872975;83;20983;-65
2021/09/15 17:16:26;;;;;;;13.72;8.85;;;;;;;25.23;64.28;99821.55;2872831;83;21027;-65
2021/09/15 17:20:28;;;;;;;19.65;9.93;;;;;;;25.17;64.59;99824.37;2872822;83;20999;-65
2021/09/15 17:24:33;;;;;;;10.30;7.47;;;;;;;25.12;64.87;99822.89;2873301;83;21051;-64
2021/09/15 17:28:34;;;;;;;;;;;;;;;25.06;65.02;99828.73;2875554;83;21023;-65
2021/09/15 17:32:37;;;;;;;12.10;9.93;;;;;;;24.98;65.59;99833.16;2872982;83;20097;-64
2021/09/15 17:36:38;;;;;;;15.10;11.60;;;;;;;24.88;65.67;99830.45;2873043;83;20936;-64
2021/09/15 17:40:41;;;;;;;20.48;13.15;;;;;;;24.80;66.07;99832.97;2872855;83;20979;-64
2021/09/15 17:44:43;;;;;;;18.23;12.23;;;;;;;24.76;66.23;99844.53;2881894;82;20980;-64
2021/09/15 17:48:45;;;;;;;15.35;9.98;;;;;;;24.73;66.69;99844.45;2896104;81;21020;-65
2021/09/15 17:52:46;;;;;;;12.55;10.70;;;;;;;24.67;67.02;99846.19;2882212;82;21064;-65
2021/09/15 17:56:48;;;;;;;12.73;8.60;;;;;;;24.63;67.51;99838.72;2882639;82;21008;-64
2021/09/15 18:00:55;;;;;;;13.98;8.43;;;;;;;24.56;68.09;99834.73;2882549;82;20968;-64
2021/09/15 18:04:57;;;;;;;10.32;8.35;;;;;;;24.54;68.70;99830.05;2882330;81;21012;-64
2021/09/15 18:08:59;;;;;;;17.17;12.58;;;;;;;24.44;68.59;99817.01;2882563;82;21027;-64
2021/09/15 18:13:01;;;;;;;14.23;10.48;;;;;;;24.36;68.74;99815.43;2882304;82;20981;-64
2021/09/15 18:17:03;;;;;;;25.60;10.35;;;;;;;24.24;68.82;99800.97;2882509;82;21024;-64
2021/09/15 18:21:07;;;;;;;23.07;10.98;;;;;;;24.19;69.02;99800.84;2882386;82;20933;-63
2021/09/15 18:25:10;;;;;;;17.50;11.10;;;;;;;24.18;69.30;99804.06;2882978;82;21016;-64
2021/09/15 18:29:23;;;;;;;32.48;19.92;;;;;;;24.10;70.15;99814.70;2882499;82;21005;-64
2021/09/15 18:33:22;;;;;;;64.60;29.25;;;;;;;23.95;70.85;99819.66;2881864;82;21005;-64
2021/09/15 18:37:35;;;;;;;45.78;30.90;;;;;;;23.79;71.40;99823.80;2879839;82;20965;-64
2021/09/15 18:41:36;;;;;;;33.58;21.60;;;;;;;23.76;71.68;99815.56;2879841;82;20957;-64
2021/09/15 18:45:44;;;;;;;32.60;23.18;;;;;;;23.66;71.74;99822.87;2880001;82;21001;-64
2021/09/15 18:49:46;;;;;;;40.28;28.20;;;;;;;23.54;72.55;99821.42;2880107;81;21033;-64
2021/09/15 19:19:26;;;;;;;39.53;26.27;;;;;;;23.20;74.53;99811.37;2857605;80;21101;-56
2021/09/15 19:24:26;;;;;;;31.48;21.07;;;;;;;23.25;74.43;99806.61;2941048;79;20987;-56
2021/09/15 19:28:28;;;;;;;30.57;19.75;;;;;;;23.28;74.17;99804.84;2941545;81;20943;-56
2021/09/15 19:32:29;;;;;;;28.27;20.82;;;;;;;23.25;74.07;99802.06;2885580;81;21001;-56
2021/09/15 19:36:55;;;;;;;19.75;15.08;;;;;;;23.22;74.65;99795.70;2885665;82;20988;-57